createdAt,value
2023-02-14T00:01:20.539Z,6.07
2023-02-14T00:03:49.275Z,6.05
2023-02-14T00:06:16.664Z,6.02
2023-02-14T00:08:45.033Z,6.01
2023-02-14T00:11:13.499Z,6.03
2023-02-14T00:14:00.677Z,6.04
2023-02-14T00:16:27.879Z,6.03
2023-02-14T00:19:03.964Z,6.05
2023-02-14T00:21:32.699Z,6.00
2023-02-14T00:23:59.878Z,6.02
2023-02-14T00:26:27.056Z,6.02
2023-02-14T00:28:54.216Z,6.05
2023-02-14T00:31:21.712Z,6.08
2023-02-14T00:33:48.999Z,6.07
2023-02-14T00:36:18.015Z,6.05
2023-02-14T00:38:45.098Z,6.08
2023-02-14T00:41:19.142Z,6.07
2023-02-14T00:43:47.451Z,6.09
2023-02-14T00:46:14.989Z,6.09
2023-02-14T00:48:42.606Z,6.10
2023-02-14T00:51:10.276Z,6.03
2023-02-14T00:53:37.712Z,6.00
2023-02-14T00:57:01.002Z,5.97
2023-02-14T00:59:28.256Z,5.97
2023-02-14T01:01:55.443Z,5.95
2023-02-14T01:04:22.614Z,5.94
2023-02-14T01:06:49.743Z,5.96
2023-02-14T01:09:16.926Z,5.98
2023-02-14T01:11:44.085Z,5.98
2023-02-14T01:14:13.509Z,5.95
2023-02-14T01:17:33.892Z,5.93
2023-02-14T01:20:01.025Z,5.93
2023-02-14T01:23:24.446Z,5.95
2023-02-14T01:26:47.771Z,5.95
2023-02-14T01:30:11.203Z,5.91
2023-02-14T01:32:38.332Z,5.89
2023-02-14T01:35:05.681Z,5.91
2023-02-14T01:37:32.841Z,5.89
2023-02-14T01:40:00.196Z,5.83
2023-02-14T01:42:27.384Z,5.86
2023-02-14T01:45:01.524Z,5.83
2023-02-14T01:47:31.242Z,5.82
2023-02-14T01:50:03.870Z,5.83
2023-02-14T01:52:38.256Z,5.86
2023-02-14T01:55:08.885Z,5.89
2023-02-14T01:57:41.424Z,5.87
2023-02-14T02:00:27.946Z,5.87
2023-02-14T02:02:56.940Z,5.86
2023-02-14T02:05:24.298Z,5.88
2023-02-14T02:07:52.914Z,5.89
2023-02-14T02:10:20.164Z,5.90
2023-02-14T02:12:49.436Z,5.90
2023-02-14T02:15:16.648Z,5.91
2023-02-14T02:18:03.925Z,5.89
2023-02-14T02:21:04.276Z,5.88
2023-02-14T02:24:03.790Z,5.86
2023-02-14T02:26:55.165Z,5.86
2023-02-14T02:29:34.350Z,5.83
2023-02-14T02:32:47.704Z,5.83
2023-02-14T02:35:33.303Z,5.82
2023-02-14T02:38:18.081Z,5.81
2023-02-14T02:40:55.250Z,5.81
2023-02-14T02:43:45.050Z,5.81
2023-02-14T02:47:04.703Z,5.79
2023-02-14T02:49:53.399Z,5.77
2023-02-14T02:52:45.561Z,5.77
2023-02-14T02:55:19.056Z,5.76
2023-02-14T02:57:46.976Z,5.78
2023-02-14T03:00:16.091Z,5.72
2023-02-14T03:03:07.212Z,5.72
2023-02-14T03:05:35.784Z,5.66
2023-02-14T03:08:04.264Z,5.66
2023-02-14T03:10:34.710Z,5.69
2023-02-14T03:13:17.693Z,5.71
2023-02-14T03:15:52.907Z,5.72
2023-02-14T03:18:31.894Z,5.74
2023-02-14T03:21:13.348Z,5.73
2023-02-14T03:23:57.477Z,5.72
2023-02-14T03:26:47.557Z,5.71
2023-02-14T03:29:27.985Z,5.72
2023-02-14T03:32:08.082Z,5.72
2023-02-14T03:34:48.517Z,5.70
2023-02-14T03:37:28.312Z,5.68
2023-02-14T03:39:58.453Z,5.68
2023-02-14T03:42:28.522Z,5.68
2023-02-14T03:44:56.856Z,5.67
2023-02-14T03:47:26.844Z,5.70
2023-02-14T03:49:57.574Z,5.73
2023-02-14T03:52:25.373Z,5.74
2023-02-14T03:54:54.432Z,5.77
2023-02-14T03:57:25.996Z,5.74
2023-02-14T03:59:53.893Z,5.72
2023-02-14T04:02:25.404Z,5.74
2023-02-14T04:04:53.241Z,5.77
2023-02-14T04:07:22.650Z,5.78
2023-02-14T04:09:50.101Z,5.78
2023-02-14T04:12:21.851Z,5.74
2023-02-14T04:14:54.570Z,5.72
2023-02-14T04:17:40.457Z,5.76
2023-02-14T04:20:32.813Z,5.73
2023-02-14T04:23:02.287Z,5.76
2023-02-14T04:25:30.441Z,5.75
2023-02-14T04:27:57.720Z,5.70
2023-02-14T04:30:25.236Z,5.71
2023-02-14T04:32:52.412Z,5.72
2023-02-14T04:35:19.578Z,5.74
2023-02-14T04:37:46.814Z,5.73
2023-02-14T04:40:17.290Z,5.70
2023-02-14T04:42:45.540Z,5.67
2023-02-14T04:45:13.502Z,5.66
2023-02-14T04:47:40.823Z,5.67
2023-02-14T04:50:08.733Z,5.68
2023-02-14T04:52:35.996Z,5.71
2023-02-14T04:55:04.465Z,5.70
2023-02-14T04:57:31.731Z,5.68
2023-02-14T04:59:58.995Z,5.71
2023-02-14T05:02:26.580Z,5.73
2023-02-14T05:04:53.816Z,5.66
2023-02-14T05:07:20.993Z,5.63
2023-02-14T05:09:48.186Z,5.66
2023-02-14T05:12:16.362Z,5.64
2023-02-14T05:14:43.533Z,5.65
2023-02-14T05:17:10.706Z,5.61
2023-02-14T05:19:37.928Z,5.59
2023-02-14T05:22:05.075Z,5.56
2023-02-14T05:24:32.200Z,5.58
2023-02-14T05:26:59.665Z,5.58
2023-02-14T05:29:26.888Z,5.60
2023-02-14T05:31:54.139Z,5.62
2023-02-14T05:34:21.893Z,5.64
2023-02-14T05:36:49.213Z,5.65
2023-02-14T05:39:16.466Z,5.68
2023-02-14T05:41:43.690Z,5.64
2023-02-14T05:44:10.863Z,5.63
2023-02-14T05:46:39.126Z,5.63
2023-02-14T05:49:06.414Z,5.66
2023-02-14T05:51:33.631Z,5.67
2023-02-14T05:54:01.266Z,5.67
2023-02-14T05:56:28.586Z,5.66
2023-02-14T05:58:55.727Z,5.64
2023-02-14T06:01:22.939Z,5.62
2023-02-14T06:03:50.115Z,5.60
2023-02-14T06:06:17.293Z,5.58
2023-02-14T06:08:44.445Z,5.61
2023-02-14T06:11:11.601Z,5.65
2023-02-14T06:13:41.410Z,5.66
2023-02-14T06:16:08.612Z,5.69
2023-02-14T06:18:35.790Z,5.71
2023-02-14T06:21:03.104Z,5.70
2023-02-14T06:23:30.247Z,5.68
2023-02-14T06:25:57.421Z,5.67
2023-02-14T06:28:24.614Z,5.65
2023-02-14T06:30:51.890Z,5.63
2023-02-14T06:33:19.136Z,5.65
2023-02-14T06:35:47.386Z,5.68
2023-02-14T06:38:14.562Z,5.69
2023-02-14T06:40:41.798Z,5.68
2023-02-14T06:43:08.938Z,5.66
2023-02-14T06:45:36.504Z,5.64
2023-02-14T06:48:03.866Z,5.67
2023-02-14T06:50:31.067Z,5.66
2023-02-14T06:52:58.188Z,5.69
2023-02-14T06:55:25.544Z,5.71
2023-02-14T06:57:52.760Z,5.72
2023-02-14T07:00:21.396Z,5.74
2023-02-14T07:02:48.622Z,5.76
2023-02-14T07:05:18.849Z,5.77
2023-02-14T07:07:46.496Z,5.77
2023-02-14T07:10:14.281Z,5.72
2023-02-14T07:12:41.574Z,5.72
2023-02-14T07:15:11.192Z,5.72
2023-02-14T07:17:38.982Z,5.75
2023-02-14T07:20:07.450Z,5.71
2023-02-14T07:22:34.853Z,5.71
2023-02-14T07:25:02.210Z,5.74
2023-02-14T07:27:29.337Z,5.73
2023-02-14T07:29:56.579Z,5.75
2023-02-14T07:32:23.885Z,5.74
2023-02-14T07:34:51.523Z,5.77
2023-02-14T07:37:19.099Z,5.78
2023-02-14T07:39:46.458Z,5.81
2023-02-14T07:42:13.593Z,5.80
2023-02-14T07:44:41.017Z,5.77
2023-02-14T07:47:09.296Z,5.81
2023-02-14T07:49:36.928Z,5.85
2023-02-14T07:52:04.986Z,5.87
2023-02-14T07:54:32.112Z,5.89
2023-02-14T07:56:59.262Z,5.90
2023-02-14T07:59:26.387Z,5.94
2023-02-14T08:01:53.537Z,5.96
2023-02-14T08:04:21.405Z,5.98
2023-02-14T08:06:48.577Z,5.97
2023-02-14T08:09:24.798Z,5.94
2023-02-14T08:12:11.729Z,5.87
2023-02-14T08:14:38.895Z,5.82
2023-02-14T08:17:10.140Z,5.83
2023-02-14T08:19:37.514Z,5.90
2023-02-14T08:22:04.839Z,5.94
2023-02-14T08:24:32.597Z,5.98
2023-02-14T08:27:00.017Z,6.02
2023-02-14T08:29:27.192Z,6.07
2023-02-14T08:31:54.487Z,6.08
2023-02-14T08:34:21.754Z,6.06
2023-02-14T08:36:48.970Z,6.10
2023-02-14T08:39:16.167Z,6.13
2023-02-14T08:41:43.376Z,6.09
2023-02-14T08:44:10.664Z,6.13
2023-02-14T08:46:37.915Z,6.14
2023-02-14T08:49:05.129Z,6.11
2023-02-14T08:51:32.273Z,6.13
2023-02-14T08:53:59.606Z,6.16
2023-02-14T08:56:27.021Z,6.14
2023-02-14T08:58:54.757Z,6.12
2023-02-14T09:01:22.096Z,6.15
2023-02-14T09:03:49.799Z,6.22
2023-02-14T09:06:17.836Z,6.25
2023-02-14T09:08:46.515Z,6.23
2023-02-14T09:11:18.372Z,6.27
2023-02-14T09:13:46.413Z,6.30
2023-02-14T09:16:17.284Z,6.31
2023-02-14T09:18:45.516Z,6.34
2023-02-14T09:21:15.275Z,6.40
2023-02-14T09:23:42.600Z,6.41
2023-02-14T09:26:12.644Z,6.43
2023-02-14T09:28:40.332Z,6.36
2023-02-14T09:31:14.521Z,6.37
2023-02-14T09:34:00.778Z,6.44
2023-02-14T09:36:27.758Z,6.48
2023-02-14T09:38:54.843Z,6.55
2023-02-14T09:41:30.603Z,6.50
2023-02-14T09:44:08.295Z,6.54
2023-02-14T09:46:41.857Z,6.58
2023-02-14T09:49:13.858Z,6.62
2023-02-14T09:51:47.468Z,6.68
2023-02-14T09:54:19.543Z,6.72
2023-02-14T09:57:03.950Z,6.76
2023-02-14T09:59:58.477Z,6.72
2023-02-14T10:02:47.525Z,6.73
2023-02-14T10:05:18.488Z,6.75
2023-02-14T10:07:57.923Z,6.74
2023-02-14T10:10:43.913Z,6.77
2023-02-14T10:13:16.129Z,6.76
2023-02-14T10:15:46.743Z,6.82
2023-02-14T10:18:19.422Z,6.82
2023-02-14T10:20:58.893Z,6.85
2023-02-14T10:23:35.061Z,6.90
2023-02-14T10:26:14.576Z,6.95
2023-02-14T10:28:49.369Z,6.91
2023-02-14T10:31:40.038Z,6.93
2023-02-14T10:34:49.131Z,6.98
2023-02-14T10:37:28.264Z,7.01
2023-02-14T10:40:09.145Z,7.04
2023-02-14T10:42:48.256Z,7.06
2023-02-14T10:45:22.972Z,7.07
2023-02-14T10:48:23.544Z,7.10
2023-02-14T10:51:09.165Z,7.12
2023-02-14T10:53:51.449Z,7.12
2023-02-14T10:56:32.486Z,7.12
2023-02-14T10:59:04.252Z,7.12
2023-02-14T11:01:31.446Z,7.17
2023-02-14T11:04:04.208Z,7.17
2023-02-14T11:06:31.428Z,7.21
2023-02-14T11:08:58.614Z,7.28
2023-02-14T11:11:32.074Z,7.29
2023-02-14T11:13:59.423Z,7.35
2023-02-14T11:16:29.842Z,7.37
2023-02-14T11:19:15.169Z,7.30
2023-02-14T11:21:45.258Z,7.29
2023-02-14T11:24:19.511Z,7.29
2023-02-14T11:26:48.576Z,7.31
2023-02-14T11:29:22.690Z,7.32
2023-02-14T11:31:50.239Z,7.36
2023-02-14T11:34:26.881Z,7.35
2023-02-14T11:36:54.175Z,7.36
2023-02-14T11:39:32.858Z,7.35
2023-02-14T11:42:04.052Z,7.38
2023-02-14T11:44:33.272Z,7.34
2023-02-14T11:47:19.906Z,7.32
2023-02-14T11:49:58.217Z,7.31
2023-02-14T11:52:29.026Z,7.29
2023-02-14T11:54:57.632Z,7.25
2023-02-14T11:57:35.172Z,7.25
2023-02-14T12:00:05.173Z,7.28
2023-02-14T12:02:41.017Z,7.31
2023-02-14T12:05:27.163Z,7.24
2023-02-14T12:07:54.658Z,7.17
2023-02-14T12:10:26.971Z,7.14
2023-02-14T12:13:24.486Z,7.18
2023-02-14T12:15:56.463Z,7.16
2023-02-14T12:18:40.790Z,7.18
2023-02-14T12:21:23.212Z,7.20
2023-02-14T12:24:11.665Z,7.26
2023-02-14T12:26:53.491Z,7.32
2023-02-14T12:29:33.917Z,7.36
2023-02-14T12:32:31.153Z,7.40
2023-02-14T12:35:07.261Z,7.44
2023-02-14T12:38:04.777Z,7.40
2023-02-14T12:41:22.859Z,7.38
2023-02-14T12:43:52.827Z,7.37
2023-02-14T12:46:38.004Z,7.39
2023-02-14T12:49:17.060Z,7.22
2023-02-14T12:51:53.959Z,7.21
2023-02-14T12:54:58.449Z,7.27
2023-02-14T12:57:37.346Z,7.33
2023-02-14T13:00:28.610Z,7.41
2023-02-14T13:03:01.837Z,7.46
2023-02-14T13:05:47.918Z,7.42
2023-02-14T13:08:29.922Z,7.40
2023-02-14T13:11:14.247Z,7.46
2023-02-14T13:14:36.752Z,7.47
2023-02-14T13:17:08.291Z,7.46
2023-02-14T13:19:53.849Z,7.46
2023-02-14T13:22:23.346Z,7.46
2023-02-14T13:24:52.073Z,7.50
2023-02-14T13:27:27.924Z,7.45
2023-02-14T13:29:58.886Z,7.47
2023-02-14T13:32:30.593Z,7.47
2023-02-14T13:34:58.584Z,7.50
2023-02-14T13:37:27.420Z,7.52
2023-02-14T13:39:56.921Z,7.51
2023-02-14T13:42:49.618Z,7.49
2023-02-14T13:45:31.738Z,7.49
2023-02-14T13:48:18.397Z,7.45
2023-02-14T13:50:53.426Z,7.50
2023-02-14T13:53:40.550Z,7.39
2023-02-14T13:56:15.227Z,7.38
2023-02-14T13:58:54.329Z,7.39
2023-02-14T14:01:34.804Z,7.35
2023-02-14T14:04:27.736Z,7.34
2023-02-14T14:07:03.786Z,7.35
2023-02-14T14:09:42.895Z,7.36
2023-02-14T14:12:28.417Z,7.30
2023-02-14T14:15:04.851Z,7.22
2023-02-14T14:17:31.954Z,7.23
2023-02-14T14:20:00.944Z,7.25
2023-02-14T14:22:28.807Z,7.26
2023-02-14T14:24:59.250Z,7.27
2023-02-14T14:27:30.833Z,7.26
2023-02-14T14:30:04.320Z,7.29
2023-02-14T14:32:33.047Z,7.31
2023-02-14T14:35:01.609Z,7.22
2023-02-14T14:37:34.877Z,7.21
2023-02-14T14:40:08.178Z,7.22
2023-02-14T14:42:40.132Z,7.20
2023-02-14T14:45:28.127Z,7.21
2023-02-14T14:47:57.236Z,7.24
2023-02-14T14:50:27.067Z,7.15
2023-02-14T14:53:06.946Z,7.17
2023-02-14T14:55:36.778Z,7.18
2023-02-14T14:58:05.873Z,7.19
2023-02-14T15:00:36.239Z,7.16
2023-02-14T15:03:12.336Z,7.15
2023-02-14T15:05:42.042Z,7.13
2023-02-14T15:08:36.746Z,7.09
2023-02-14T15:11:09.749Z,7.03
2023-02-14T15:13:54.684Z,7.00
2023-02-14T15:16:35.533Z,7.02
2023-02-14T15:19:11.383Z,7.03
2023-02-14T15:21:44.147Z,7.03
2023-02-14T15:24:16.563Z,6.99
2023-02-14T15:26:45.983Z,6.99
2023-02-14T15:29:42.750Z,6.96
2023-02-14T15:32:10.505Z,6.92
2023-02-14T15:34:37.760Z,6.71
2023-02-14T15:37:06.444Z,6.65
2023-02-14T15:39:37.475Z,6.67
2023-02-14T15:42:05.958Z,6.72
2023-02-14T15:44:34.448Z,6.68
2023-02-14T15:47:05.561Z,6.68
2023-02-14T15:49:37.994Z,6.67
2023-02-14T15:52:05.852Z,6.68
2023-02-14T15:54:42.787Z,6.70
2023-02-14T15:57:21.139Z,6.72
2023-02-14T15:59:49.116Z,6.66
2023-02-14T16:02:38.057Z,6.68
2023-02-14T16:05:23.953Z,6.63
2023-02-14T16:08:22.034Z,6.60
2023-02-14T16:11:08.849Z,6.55
2023-02-14T16:13:37.651Z,6.51
2023-02-14T16:16:07.306Z,6.48
2023-02-14T16:18:37.685Z,6.42
2023-02-14T16:21:24.811Z,6.42
2023-02-14T16:24:07.246Z,6.25
2023-02-14T16:26:37.924Z,6.13
2023-02-14T16:29:08.415Z,6.15
2023-02-14T16:31:38.843Z,6.17
2023-02-14T16:34:06.099Z,6.21
2023-02-14T16:36:34.023Z,6.24
2023-02-14T16:39:04.958Z,6.28
2023-02-14T16:41:33.906Z,6.32
2023-02-14T16:44:01.133Z,6.34
2023-02-14T16:46:32.957Z,6.33
2023-02-14T16:49:00.403Z,6.34
2023-02-14T16:51:29.774Z,6.34
2023-02-14T16:54:04.659Z,6.31
2023-02-14T16:56:54.731Z,6.23
2023-02-14T16:59:21.945Z,6.15
2023-02-14T17:01:49.475Z,6.00
2023-02-14T17:04:16.685Z,6.03
2023-02-14T17:06:48.176Z,6.11
2023-02-14T17:09:18.145Z,6.03
2023-02-14T17:11:48.381Z,5.96
2023-02-14T17:14:19.787Z,5.99
2023-02-14T17:16:46.967Z,6.02
2023-02-14T17:19:14.243Z,6.03
2023-02-14T17:21:41.432Z,5.94
2023-02-14T17:24:08.570Z,5.93
2023-02-14T17:26:37.974Z,5.98
2023-02-14T17:29:06.805Z,5.99
2023-02-14T17:31:34.799Z,5.99
2023-02-14T17:34:02.028Z,5.95
2023-02-14T17:36:30.189Z,5.93
2023-02-14T17:38:57.333Z,5.93
2023-02-14T17:41:26.222Z,5.77
2023-02-14T17:44:00.186Z,5.73
2023-02-14T17:46:28.599Z,5.78
2023-02-14T17:48:56.520Z,5.80
2023-02-14T17:51:23.955Z,5.79
2023-02-14T17:53:51.279Z,5.69
2023-02-14T17:56:24.199Z,5.57
2023-02-14T17:58:52.645Z,5.59
2023-02-14T18:01:21.672Z,5.56
2023-02-14T18:03:48.962Z,5.59
2023-02-14T18:06:16.118Z,5.65
2023-02-14T18:08:57.713Z,5.69
2023-02-14T18:11:26.681Z,5.73
2023-02-14T18:13:55.637Z,5.75
2023-02-14T18:16:24.623Z,5.78
2023-02-14T18:18:52.211Z,5.73
2023-02-14T18:21:24.469Z,5.74
2023-02-14T18:23:51.936Z,5.74
2023-02-14T18:26:19.426Z,5.71
2023-02-14T18:28:46.646Z,5.71
2023-02-14T18:31:16.472Z,5.71
2023-02-14T18:33:46.232Z,5.72
2023-02-14T18:36:15.609Z,5.69
2023-02-14T18:38:43.804Z,5.59
2023-02-14T18:41:13.422Z,5.56
2023-02-14T18:43:41.345Z,5.55
2023-02-14T18:46:10.530Z,5.52
2023-02-14T18:48:37.932Z,5.53
2023-02-14T18:51:09.602Z,5.57
2023-02-14T18:53:37.635Z,5.58
2023-02-14T18:56:12.754Z,5.58
2023-02-14T18:58:44.150Z,5.57
2023-02-14T19:01:16.579Z,5.46
2023-02-14T19:03:44.417Z,5.36
2023-02-14T19:06:12.725Z,5.35
2023-02-14T19:08:40.732Z,5.37
2023-02-14T19:11:15.481Z,5.37
2023-02-14T19:13:53.465Z,5.38
2023-02-14T19:16:28.684Z,5.42
2023-02-14T19:18:56.188Z,5.42
2023-02-14T19:21:25.747Z,5.43
2023-02-14T19:23:54.691Z,5.44
2023-02-14T19:26:27.744Z,5.45
2023-02-14T19:28:56.980Z,5.46
2023-02-14T19:31:24.882Z,5.48
2023-02-14T19:33:52.659Z,5.47
2023-02-14T19:36:21.398Z,5.45
2023-02-14T19:38:51.783Z,5.46
2023-02-14T19:41:22.506Z,5.33
2023-02-14T19:43:51.348Z,5.29
2023-02-14T19:46:19.966Z,5.30
2023-02-14T19:48:47.623Z,5.34
2023-02-14T19:51:19.647Z,5.34
2023-02-14T19:53:46.820Z,5.34
2023-02-14T19:56:19.713Z,5.36
2023-02-14T19:58:47.747Z,5.34
2023-02-14T20:01:41.775Z,5.29
2023-02-14T20:04:10.728Z,5.23
2023-02-14T20:06:38.321Z,5.22
2023-02-14T20:09:06.067Z,5.23
2023-02-14T20:11:35.490Z,5.26
2023-02-14T20:14:03.444Z,5.28
2023-02-14T20:16:32.763Z,5.32
2023-02-14T20:19:08.146Z,5.29
2023-02-14T20:21:35.593Z,5.31
2023-02-14T20:24:04.083Z,5.30
2023-02-14T20:26:33.218Z,5.32
2023-02-14T20:29:03.698Z,5.34
2023-02-14T20:31:32.812Z,5.33
2023-02-14T20:34:00.315Z,5.33
2023-02-14T20:36:27.815Z,5.32
2023-02-14T20:38:59.717Z,5.33
2023-02-14T20:41:27.854Z,5.32
2023-02-14T20:43:55.573Z,5.32
2023-02-14T20:46:22.981Z,5.31
2023-02-14T20:48:50.940Z,5.30
2023-02-14T20:51:19.849Z,5.27
2023-02-14T20:53:47.387Z,5.27
2023-02-14T20:56:15.438Z,5.24
2023-02-14T20:58:43.134Z,5.16
2023-02-14T21:01:18.235Z,5.08
2023-02-14T21:03:47.007Z,5.11
2023-02-14T21:06:14.990Z,5.08
2023-02-14T21:08:43.209Z,5.12
2023-02-14T21:11:11.823Z,5.12
2023-02-14T21:13:39.306Z,5.13
2023-02-14T21:16:09.748Z,5.15
2023-02-14T21:18:40.416Z,5.16
2023-02-14T21:21:13.643Z,5.18
2023-02-14T21:23:41.115Z,5.21
2023-02-14T21:26:08.418Z,5.21
2023-02-14T21:28:35.720Z,5.21
2023-02-14T21:31:07.919Z,5.20
2023-02-14T21:33:36.059Z,5.08
2023-02-14T21:36:14.399Z,5.11
2023-02-14T21:38:42.098Z,5.12
2023-02-14T21:41:14.481Z,5.15
2023-02-14T21:43:43.380Z,5.12
2023-02-14T21:46:16.499Z,5.05
2023-02-14T21:49:02.469Z,5.07
2023-02-14T21:51:30.298Z,4.98
2023-02-14T21:53:59.825Z,4.99
2023-02-14T21:56:27.487Z,4.96
2023-02-14T21:58:55.612Z,4.93
2023-02-14T22:01:27.787Z,4.92
2023-02-14T22:03:56.275Z,4.93
2023-02-14T22:06:23.617Z,4.91
2023-02-14T22:08:58.558Z,4.81
2023-02-14T22:11:28.100Z,4.82
2023-02-14T22:13:56.194Z,4.84
2023-02-14T22:16:24.590Z,4.87
2023-02-14T22:18:52.910Z,4.89
2023-02-14T22:21:22.737Z,4.89
2023-02-14T22:23:50.129Z,4.87
2023-02-14T22:26:28.396Z,4.89
2023-02-14T22:28:59.089Z,4.91
2023-02-14T22:31:30.282Z,4.91
2023-02-14T22:33:57.576Z,4.91
2023-02-14T22:36:24.812Z,4.92
2023-02-14T22:38:51.942Z,4.93
2023-02-14T22:41:21.575Z,4.92
2023-02-14T22:43:49.056Z,4.91
2023-02-14T22:46:21.410Z,4.88
2023-02-14T22:48:49.925Z,4.88
2023-02-14T22:51:27.451Z,4.78
2023-02-14T22:53:56.927Z,4.68
2023-02-14T22:56:27.868Z,4.68
2023-02-14T22:58:56.366Z,4.67
2023-02-14T23:01:24.407Z,4.68
2023-02-14T23:03:55.870Z,4.68
2023-02-14T23:06:27.428Z,4.69
2023-02-14T23:08:55.671Z,4.69
2023-02-14T23:11:31.778Z,4.70
2023-02-14T23:14:17.693Z,4.70
2023-02-14T23:17:04.022Z,4.67
2023-02-14T23:19:51.435Z,4.62
2023-02-14T23:22:20.488Z,4.64
2023-02-14T23:24:49.055Z,4.64
2023-02-14T23:27:18.288Z,4.67
2023-02-14T23:29:45.452Z,4.68
2023-02-14T23:32:13.058Z,4.70
2023-02-14T23:34:41.552Z,4.68
2023-02-14T23:37:09.637Z,4.63
2023-02-14T23:39:37.661Z,4.63
2023-02-14T23:42:06.073Z,4.63
2023-02-14T23:44:34.185Z,4.64
2023-02-14T23:47:04.195Z,4.64
2023-02-14T23:49:33.055Z,4.63
2023-02-14T23:52:00.507Z,4.61
2023-02-14T23:54:28.131Z,4.59
2023-02-14T23:56:55.378Z,4.56
2023-02-14T23:59:22.553Z,4.50
